Home   Weather   Germany   Geldern   Past weeks
Flag for Germany

Past Weather in Geldern, North Rhine-Westphalia, Germany — Yesterday and Last 2 Weeks

Currently: 52 °F. Clear. (Weather station: Niederrhein, Germany). See more current weather

Past Weather in Geldern — Graph

°F

Geldern Temperature Yesterday

Maximum temperature yesterday: 73 °F (at 4:20 pm)
Minimum temperature yesterday: 46 °F (at 4:50 am)
Average temperature yesterday: 65 °F

High & Low Weather Summary for the Past Weeks

 TemperatureHumidityPressure
High82 °F (Jun 2, 6:20 pm)100% (Jun 3, 11:50 pm)30.39 "Hg (Jun 3, 11:50 pm)
Low46 °F (May 30, 4:50 am)24% (Jun 2, 4:20 pm)29.92 "Hg (Jun 2, 5:50 pm)
Average68 °F64%30.15 "Hg
* Reported May 30 4:50 am — Jun 14 4:50 am, Geldern. Weather by CustomWeather, © 2021

Note: Actual official high and low records may vary slightly from our data, if they occured in-between our weather recording intervals... More about our weather records

Geldern Weather History for the Previous 24 Hours

Scroll right to see more
 ConditionsComfort  
Time TempWeatherWind HumidityBarometerVisibility
4:50 am
Mon, Jun 14
55 °FClear.3 mph77%30.21 "Hg10 mi
11:50 pm
Sun, Jun 13
61 °FClear.2 mph59%30.27 "Hg10 mi
11:20 pm63 °FClear.2 mph56%30.27 "Hg10 mi
10:50 pm63 °FSunny.2 mph59%30.27 "Hg10 mi
10:20 pm66 °FSunny.2 mph52%30.27 "Hg10 mi
9:50 pm68 °FSunny.2 mph49%30.27 "Hg10 mi
9:20 pm70 °FSunny.2 mph50%30.27 "Hg10 mi
8:50 pm72 °FSunny.2 mph47%30.27 "Hg10 mi
8:20 pm72 °FSunny.2 mph47%30.27 "Hg10 mi
7:50 pm72 °FSunny.2 mph47%30.30 "Hg10 mi
7:20 pm73 °FSunny.3 mph44%30.30 "Hg10 mi
6:50 pm73 °FSunny.2 mph44%30.30 "Hg10 mi
6:20 pm73 °FPassing clouds.6 mph44%30.30 "HgN/A
5:50 pm73 °FSunny.5 mph44%30.30 "Hg10 mi
5:20 pm73 °FSunny.5 mph41%30.30 "Hg10 mi
4:50 pm72 °FPassing clouds.5 mph41%30.33 "HgN/A
4:20 pm73 °FSunny.2 mph38%30.33 "Hg10 mi
3:50 pm72 °FPassing clouds.5 mph38%30.33 "HgN/A
3:20 pm72 °FSunny.3 mph41%30.33 "Hg10 mi
2:50 pm70 °FSunny.5 mph43%30.36 "Hg10 mi
2:20 pm70 °FPassing clouds.6 mph46%30.36 "HgN/A
1:50 pm70 °FSunny.6 mph50%30.36 "Hg10 mi
1:20 pm70 °FSunny.5 mph50%30.36 "Hg10 mi
12:50 pm68 °FSunny.5 mph53%30.36 "Hg10 mi
12:20 pm66 °FPassing clouds.6 mph52%30.36 "HgN/A
11:50 am66 °FPassing clouds.5 mph52%30.36 "HgN/A
11:20 am64 °FSunny.2 mph56%30.36 "Hg10 mi
10:50 am63 °FSunny.3 mph59%30.39 "Hg10 mi
10:20 am63 °FSunny.3 mph59%30.36 "Hg10 mi
9:50 am63 °FSunny.3 mph59%30.36 "Hg10 mi
9:20 am61 °FSunny.2 mph59%30.36 "Hg10 mi
8:50 am61 °FSunny.2 mph63%30.36 "Hg10 mi
8:20 am59 °FSunny.2 mph68%30.36 "Hg10 mi
7:50 am57 °FSunny.2 mph82%30.33 "Hg10 mi
7:20 am54 °FSunny.1 mph88%30.33 "Hg10 mi
6:50 am52 °FSunny.No wind100%30.33 "Hg10 mi
6:20 am50 °FSunny.No wind94%30.33 "Hg10 mi
Weather by CustomWeather, © 2021

See weather overview